Aeroporto :
LOGIN :

Iscrizione | Disclaimer

   EN    FR    IT 

 










Sommario :    VFR   VFR Marginale   IFR   IFR Intensivo   IFR Molto Intensivo
Visibilità : 
Base nubi : 
>= 8 km
>= 3000ft
5 / 8 km
1000 / 3000 ft
1500m / 5 km
500 / 1000 ft
800 / 1500m
200 / 500 ft
< 800m
< 200 ft
Simboli :   Temporali  Nebbia  Neve Forte  Precipitazioni Forti  Vento > 20 kt
SIGMETs :   Varie  Temporali  Ghiacco  Turbolenza  Onda orograficha  Ceneri Vulcaniche







- Altitudine del aeroporto : 157 ft
- Codice IATA : LIL
- Carte del aeroporto


LFQQ - Lille Lesquin

ULTIMO METAR :
  • 170900Z AUTO 15007KT 120V190 CAVOK 21/13 Q1020 NOSIG

METARs OBSOLETI :
  • 170830Z AUTO 17004KT 110V220 CAVOK 21/13 Q1020 NOSIG
  • 170800Z AUTO 19003KT 130V240 CAVOK 20/14 Q1020 NOSIG
  • 170730Z AUTO 17003KT 110V210 CAVOK 19/13 Q1020 NOSIG
  • 170700Z AUTO 16004KT 130V190 CAVOK 18/14 Q1020 NOSIG
  • 170630Z AUTO VRB03KT CAVOK 16/14 Q1020 NOSIG

TAF TAF LFQQ
Valido dal 17 a 06 ore il 18 a 12 ore UTC


170500Z 1706/1812 18005KT CAVOK
ATIS : +33 3 20 16 19 54
Nessun NOTAM noto per questo aeroporto.



MetMap, La meteo Aeronautica in un colpo d'occhio ! - Copyright ORBIFLY Dicembre 2007 - Disclaimer

ORBIFLY MET'MAP TEAM :

Programmazione e sviluppo : Alexandra Zaïnal
Concezione e sviluppo : Baudouin d'Aumeries
Co-Programmazione e sviluppo : Marc-Olivier Méhu
Supporto tecnico e logistico : Manuel Goepfert
Aiuto per la traduzione : Arnaldo La Scala

Contatto : metmap@orbifly.com




FONTI E CREDITI :

   NOAA